Larnaca, Cyprus

11:32 PM EEST on August 26, 2016 (GMT +0300)
All You Can Surf | | Change Station

Elev 5 ft 34.95 °N, 33.65 °E | Updated 14 seconds ago

Clear
Clear
82.0 °F
Feels Like 88 °F
N
5.1
Wind Variable Wind from WNW
Gusts 7.4 mph

Today
High -- | Low -- °F
--% Chance of Precip.
Yesterday
High -- | Low -- °F
Precip. -- in
Pressure 29.86 in
Visibility -9999.0 miles
Clouds
Heat Index 88 °F
Dew Point 73 °F
Humidity 75%
Rainfall 0.00 in
Snow Depth Not available.
6:14 AM 7:19 PM
Waning Crescent, 31% visible
METAR LCLK 262000Z 32010KT CAVOK 28/23 Q1011 NOSIG
Pressure 29.86 in
Visibility -9999.0 miles
Clouds
Heat Index 88 °F
Dew Point 73 °F
Humidity 75%
Rainfall 0.00 in
Snow Depth Not available.
6:14 AM 7:19 PM
Waning Crescent, 31% visible
METAR LCLK 262000Z 32010KT CAVOK 28/23 Q1011 NOSIG

10-Day Weather Forecast

×

Almanac

Astronomy

Aug. 26, 2016 Rise Set
Actual Time
Civil Twilight
Nautical Twilight
Astronomical Twilight
Moon
Length of Visible Light
Length of Day
Tomorrow will be .
, % of the Moon is Illuminated

Today's Extremes

Country Highs Country Lows

Community

WunderPhotos

Upload Photos

1,935,203 photos uploaded!

WunderBlog® & News

Nearby

Air Quality

  Air Quality AQ Index Pollutant
Not available.

Snow Depth

Station Depth Elevation

Earthquake Activity

City Distance Mag. Time & Date
Minimum magnitude displayed is 2.5.

Coastal Water Temperatures

Place Temperature

Stations

Nearby Weather Stations

Station Location Temp. Windchill Dew Point Humidity Wind Precip. Elev Updated Type